Flight Track Log - Related Links

Times and Time Zones

All times are in EDT time to prevent confusion due to time zone crossing. See the CSN6338 flight status page for this flight to view local times or setup timezone preferences in your user account.

Time Position Orientation Groundspeed Altitude Reporting Facility
EDT Latitude Longitude Course Direction KTS MPH feet Rate Location/Type
Sat 07:15:00 AM 38.8695 121.4830 204° Southwest  Level Estimated
Sat 07:16:00 AM 38.7733 121.4276 204° Southwest  Level Estimated
Sat 07:17:00 AM 38.6771 121.3724 204° Southwest  Level Estimated
Sat 07:18:00 AM 38.5808 121.3173 204° Southwest  Level Estimated
Sat 07:19:00 AM 38.4845 121.2623 204° Southwest  Level Estimated
Sat 07:20:00 AM 38.3882 121.2075 204° Southwest  Level Estimated
Sat 07:21:00 AM 38.2919 121.1528 204° Southwest  Level Estimated
Sat 07:22:00 AM 38.1955 121.0983 204° Southwest  Level Estimated
Sat 07:23:00 AM 38.0991 121.0439 204° Southwest  Level Estimated
Sat 07:24:00 AM 38.0027 120.9897 204° Southwest  Level Estimated
Sat 07:25:00 AM 37.9063 120.9356 204° Southwest  Level Estimated
Sat 07:26:00 AM 37.8098 120.8816 204° Southwest  Level Estimated
Sat 07:27:00 AM 37.7134 120.8278 204° Southwest  Level Estimated
Sat 07:28:00 AM 37.6169 120.7741 204° Southwest  Level Estimated
Sat 07:29:00 AM 37.5203 120.7206 204° Southwest  Level Estimated
Sat 07:30:00 AM 37.4238 120.6672 204° Southwest  Level Estimated
Sat 07:31:00 AM 37.3272 120.6139 204° Southwest  Level Estimated
Sat 07:32:00 AM 37.2306 120.5608 204° Southwest  Level Estimated
Sat 07:33:00 AM 37.1340 120.5078 204° Southwest  Level Estimated
Sat 07:34:00 AM 37.0373 120.4550 204° Southwest  Level Estimated
Sat 07:35:00 AM 36.9406 120.4022 204° Southwest  Level Estimated
Sat 07:36:00 AM 36.8439 120.3497 204° Southwest  Level Estimated
Sat 07:37:00 AM 36.7472 120.2972 203° Southwest  Level Estimated
Sat 07:38:00 AM 36.6505 120.2449 203° Southwest  Level Estimated
Sat 07:39:00 AM 36.5537 120.1927 203° Southwest  Level Estimated
Sat 07:40:00 AM 36.4569 120.1406 203° Southwest  Level Estimated
Sat 07:41:00 AM 36.3601 120.0887 203° Southwest  Level Estimated
Sat 07:42:00 AM 36.2633 120.0369 203° Southwest  Level Estimated
Sat 07:43:00 AM 36.1664 119.9852 203° Southwest  Level Estimated
Sat 07:44:00 AM 36.0695 119.9337 203° Southwest  Level Estimated
Sat 07:45:00 AM 35.9726 119.8823 203° Southwest  Level Estimated
Sat 07:46:00 AM 35.8757 119.8310 203° Southwest  Level Estimated
Sat 07:47:00 AM 35.7788 119.7798 203° Southwest  Level Estimated
Sat 07:48:00 AM 35.6818 119.7288 203° Southwest  Level Estimated
Sat 07:49:00 AM 35.5848 119.6779 203° Southwest  Level Estimated
Sat 07:50:00 AM 35.4878 119.6271 203° Southwest  Level Estimated
Sat 07:51:00 AM 35.3908 119.5764 203° Southwest  Level Estimated
Sat 07:52:00 AM 35.2937 119.5259 203° Southwest  Level Estimated
Sat 07:53:00 AM 35.1967 119.4754 203° Southwest  Level Estimated
Sat 07:54:00 AM 35.0996 119.4251 203° Southwest  Level Estimated
Sat 07:55:00 AM 35.0025 119.3749 203° Southwest  Level Estimated
Sat 07:56:00 AM 34.9053 119.3249 203° Southwest  Level Estimated
Sat 07:57:00 AM 34.8082 119.2749 203° Southwest  Level Estimated
Sat 07:58:00 AM 34.7110 119.2251 203° Southwest  Level Estimated
Sat 07:59:00 AM 34.6138 119.1754 203° Southwest  Level Estimated
Sat 08:00:00 AM 34.5166 119.1258 203° Southwest  Level Estimated
Sat 08:01:00 AM 34.4194 119.0763 203° Southwest  Level Estimated
Sat 08:02:00 AM 34.3221 119.0269 203° Southwest  Level Estimated
Sat 08:03:00 AM 34.2249 118.9777 203° Southwest  Level Estimated
Sat 08:04:00 AM 34.1276 118.9285 203° Southwest  Level Estimated
Sat 08:05:00 AM 34.0303 118.8795 203° Southwest  Level Estimated
Sat 08:06:00 AM 33.9329 118.8306 203° Southwest  Level Estimated
Sat 08:07:00 AM 33.8356 118.7818 203° Southwest  Level Estimated
Sat 08:08:00 AM 33.7382 118.7331 203° Southwest  Level Estimated
Sat 08:09:00 AM 33.6408 118.6845 203° Southwest  Level Estimated
Sat 08:10:00 AM 33.5434 118.6360 203° Southwest  Level Estimated
Sat 08:11:00 AM 33.4460 118.5877 203° Southwest  Level Estimated
Sat 08:12:00 AM 33.3485 118.5394 202° Southwest  Level Estimated
Sat 08:13:00 AM 33.2511 118.4913 202° Southwest  Level Estimated
Sat 08:14:00 AM 33.1536 118.4433 202° Southwest  Level Estimated
Sat 08:15:00 AM 33.0561 118.3953 202° Southwest  Level Estimated
Sat 08:16:00 AM 32.9586 118.3475 202° Southwest  Level Estimated
Sat 08:17:00 AM 32.8610 118.2998 202° Southwest  Level Estimated
Sat 08:18:00 AM 32.7635 118.2522 202° Southwest  Level Estimated
Sat 08:19:00 AM 32.6659 118.2046 202° Southwest  Level Estimated
Sat 08:20:00 AM 32.5683 118.1572 202° Southwest  Level Estimated
Sat 08:21:00 AM 32.4707 118.1099 202° Southwest  Level Estimated
Sat 08:22:00 AM 32.3731 118.0627 202° Southwest  Level Estimated
Sat 08:23:00 AM 32.2754 118.0156 202° Southwest  Level Estimated
Sat 08:24:00 AM 32.1778 117.9686 202° Southwest  Level Estimated
Sat 08:25:00 AM 32.0801 117.9217 202° Southwest  Level Estimated
Sat 08:26:00 AM 31.9824 117.8749 202° Southwest  Level Estimated
Sat 08:27:00 AM 31.8847 117.8282 202° Southwest  Level Estimated
Sat 08:28:00 AM 31.7869 117.7816 202° Southwest  Level Estimated
Sat 08:29:00 AM 31.6892 117.7351 202° Southwest  Level Estimated
Sat 08:30:00 AM 31.5914 117.6887 202° Southwest  Level Estimated
Sat 08:31:00 AM 31.4936 117.6424 202° Southwest  Level Estimated
Sat 08:32:00 AM 31.3958 117.5962 202° Southwest  Level Estimated
Sat 08:33:00 AM 31.2980 117.5501 202° Southwest  Level Estimated
Sat 08:34:00 AM 31.2002 117.5041 202° Southwest  Level Estimated
Sat 08:35:00 AM 31.1023 117.4582 202° Southwest  Level Estimated
Sat 08:36:00 AM 31.0045 117.4123 202° Southwest  Level Estimated
Sat 08:37:00 AM 30.9066 117.3666 202° Southwest  Level Estimated
Sat 08:38:00 AM 30.8087 117.3210 202° Southwest  Level Estimated
Sat 08:39:00 AM 30.7108 117.2754 202° Southwest  Level Estimated
Sat 08:40:00 AM 30.6129 117.2299 202° Southwest  Level Estimated
Sat 08:41:00 AM 30.5149 117.1846 202° Southwest  Level Estimated
Sat 08:42:00 AM 30.4170 117.1393 202° Southwest  Level Estimated
Sat 08:43:00 AM 30.3190 117.0941 202° Southwest  Level Estimated
Sat 08:44:00 AM 30.2210 117.0490 202° Southwest  Level Estimated
Sat 08:45:00 AM 30.1230 117.0041 202° Southwest  Level Estimated
Sat 08:46:00 AM 30.0250 116.9591 202° Southwest  Level Estimated
Sat 08:47:00 AM 29.9269 116.9143 202° Southwest  Level Estimated
Sat 08:48:00 AM 29.8289 116.8696 202° Southwest  Level Estimated
Sat 08:49:00 AM 29.7308 116.8249 202° Southwest  Level Estimated
Sat 08:50:00 AM 29.6327 116.7804 202° Southwest  Level Estimated
Sat 08:51:00 AM 29.5346 116.7359 202° Southwest  Level Estimated
Sat 08:52:00 AM 29.4365 116.6915 202° Southwest  Level Estimated
Sat 08:53:00 AM 29.3384 116.6472 201° Southwest  Level Estimated
Sat 08:54:00 AM 29.2402 116.6030 201° Southwest  Level Estimated
Sat 08:55:00 AM 29.1421 116.5589 201° Southwest  Level Estimated
Sat 08:56:00 AM 29.0439 116.5148 201° Southwest  Level Estimated
Sat 08:57:00 AM 28.9457 116.4708 201° Southwest  Level Estimated
Sat 08:58:00 AM 28.8475 116.4270 201° Southwest  Level Estimated
Sat 08:59:00 AM 28.7493 116.3832 201° Southwest  Level Estimated
Sat 09:00:00 AM 28.6511 116.3394 201° Southwest  Level Estimated
Sat 09:01:00 AM 28.5529 116.2958 201° Southwest  Level Estimated
Sat 09:02:00 AM 28.4546 116.2523 201° Southwest  Level Estimated
Sat 09:03:00 AM 28.3563 116.2088 201° Southwest  Level Estimated
Sat 09:04:00 AM 28.2581 116.1654 201° Southwest  Level Estimated
Sat 09:05:00 AM 28.1597 116.1221 201° Southwest  Level Estimated
Sat 09:06:00 AM 28.0614 116.0789 201° Southwest  Level Estimated
Sat 09:07:00 AM 27.9631 116.0357 201° Southwest  Level Estimated
Sat 09:08:00 AM 27.8648 115.9927 201° Southwest  Level Estimated
Sat 09:09:00 AM 27.7664 115.9497 201° Southwest  Level Estimated
Sat 09:10:00 AM 27.6681 115.9067 201° Southwest  Level Estimated
Sat 09:11:00 AM 27.5697 115.8639 201° Southwest  Level Estimated
Sat 09:12:00 AM 27.4713 115.8211 201° Southwest  Level Estimated
Sat 09:13:00 AM 27.3729 115.7784 201° Southwest  Level Estimated
Sat 09:14:00 AM 27.2745 115.7358 201° Southwest  Level Estimated
Sat 09:15:00 AM 27.1761 115.6933 201° Southwest  Level Estimated
Sat 09:16:00 AM 27.0776 115.6508 201° Southwest  Level Estimated
Sat 09:17:00 AM 26.9792 115.6084 201° Southwest  Level Estimated
Sat 09:18:00 AM 26.8807 115.5661 201° Southwest  Level Estimated
Sat 09:19:00 AM 26.7822 115.5239 201° Southwest  Level Estimated
Sat 09:20:00 AM 26.6837 115.4817 201° Southwest  Level Estimated
Sat 09:21:00 AM 26.5852 115.4396 201° Southwest  Level Estimated
Sat 09:22:00 AM 26.4867 115.3976 201° Southwest  Level Estimated
Sat 09:23:00 AM 26.3882 115.3557 201° Southwest  Level Estimated
Sat 09:24:00 AM 26.2896 115.3138 201° Southwest  Level Estimated
Sat 09:25:00 AM 26.1911 115.2720 201° Southwest  Level Estimated
Sat 09:26:00 AM 26.0925 115.2302 201° Southwest  Level Estimated
Sat 09:27:00 AM 25.9939 115.1886 201° Southwest  Level Estimated
Sat 09:28:00 AM 25.8953 115.1470 201° Southwest  Level Estimated
Sat 09:29:00 AM 25.7967 115.1054 201° Southwest  Level Estimated
Sat 09:30:00 AM 25.6981 115.0640 201° Southwest  Level Estimated
Sat 09:31:00 AM 25.5995 115.0226 201° Southwest  Level Estimated
Sat 09:32:00 AM 25.5009 114.9813 201° Southwest  Level Estimated
Sat 09:33:00 AM 25.4022 114.9400 201° Southwest  Level Estimated
Sat 09:34:00 AM 25.3036 114.8988 201° Southwest  Level Estimated
Sat 09:35:00 AM 25.2049 114.8577 201° Southwest  Level Estimated
Sat 09:36:00 AM 25.1062 114.8167 201° Southwest  Level Estimated
Sat 09:37:00 AM 25.0075 114.7757 201° Southwest  Level Estimated
Sat 09:38:00 AM 24.9088 114.7347 201° Southwest  Level Estimated
Sat 09:39:00 AM 24.8101 114.6939 201° Southwest  Level Estimated
Sat 09:40:00 AM 24.7114 114.6531 201° Southwest  Level Estimated
Sat 09:41:00 AM 24.6126 114.6124 201° Southwest  Level Estimated
Sat 09:42:00 AM 24.5139 114.5717 201° Southwest  Level Estimated
Sat 09:43:00 AM 24.4151 114.5311 201° Southwest  Level Estimated
Sat 09:44:00 AM 24.3164 114.4906 201° Southwest  Level Estimated
Sat 09:45:00 AM 24.2176 114.4501 200° South  Level Estimated
Sat 09:46:00 AM 24.1188 114.4097 200° South  Level Estimated
Sat 09:47:00 AM 24.0200 114.3694 200° South  Level Estimated
Sat 09:48:00 AM 23.9212 114.3291 200° South  Level Estimated
Sat 09:49:00 AM 23.8223 114.2889 200° South  Level Estimated
Sat 09:50:00 AM 23.7235 114.2487 200° South  Level Estimated
Sat 09:51:00 AM 23.6247 114.2086 200° South  Level Estimated
Sat 09:52:00 AM 23.5258 114.1686 200° South  Level Estimated
Sat 09:53:00 AM 23.4270 114.1286 200° South  Level Estimated
Sat 09:54:00 AM 23.3281 114.0887 200° South  Level Estimated
Sat 09:55:00 AM 23.2292 114.0488 200° South  Level Estimated
Sat 09:56:00 AM 23.1303 114.0090 200° South  Level Estimated
Sat 09:57:00 AM 23.0314 113.9693 200° South  Level Estimated
Sat 09:58:00 AM 22.9325 113.9296 200° South  Level Estimated
Sat 09:59:00 AM 22.8336 113.8900 200° South  Level Estimated
Sat 10:00:00 AM 22.7346 113.8504 200° South  Level Estimated
Sat 10:01:00 AM 22.6395 113.8124 200° South  Level Estimated
Sat 10:02:00 AM 22.6395 113.8124 25° Northeast  Level Estimated
Sat 10:03:00 AM 22.6395 113.8124 25° Northeast  Level Estimated
Sat 10:04:00 AM 22.6395 113.8124 25° Northeast  Level Estimated
Sat 10:05:00 AM 22.6395 113.8124 25° Northeast  Level Estimated
Sat 10:06:00 AM 22.6395 113.8124 25° Northeast  Level Estimated
Sat 10:07:00 AM 22.6395 113.8124 25° Northeast  Level Estimated
Sat 10:08:00 AM 22.6395 113.8124 25° Northeast  Level Estimated
Sat 10:09:00 AM 22.6395 113.8124 25° Northeast  Level Estimated
Sat 10:10:00 AM 22.6395 113.8124 25° Northeast  Level Estimated
Sat 10:11:00 AM 22.6395 113.8124 25° Northeast  Level Estimated
Sat 10:12:00 AM 22.6395 113.8124 25° Northeast  Level Estimated

Login

Don't have an account? Register now (free) for customized features, flight alerts, and more!